map of KEFT home
Great Circle Mapper logo
KEFT - Airport
Location
City:  Monroe, Wisconsin, United States
Name:Monroe Municipal Airport
ICAO:KEFT
FAA:EFT

Details
Type:Airport (Airfield)
Use:Public/Civil
Latitude:4236'54"N (42.614901)
Longitude:8935'25"W (-89.590402)
Datum:WGS 1984
Elevation:1086 ft (331 m)
Runways:2
Longest:5000 × 75 ft (1524 × 23 m), paved

Time
Time Zone:UTC-6 (DST-5)
Local Time:

Weather
METAR:KEFT 221835Z AUTO 22012G15KT 10SM OVC023 30/23 A2994 RMK AO2

Related Locations
Nearby:
Farthest:MGV: 10977 mi / 17666 km
Margaret River, WA, AU

Find:

   beyond  
but within

Other Information
Maps:
NOTAMs:
Links:
Sources:

  
flag of United States
flag of Wisconsin
  

Sectional Chart

Flight Planning
at skyvector.com

Satellite Image

Google Maps Satellite View

 

Copyright © 2004-2014 Karl L. Swartz. All rights reserved.
The Great Circle Mapper name and logo are trademarks of the Great Circle Mapper.
All other trademarks mentioned herein belong to their respective owners.
Please see credits for attibutions and further copyright information.

  Follow gcmap on Facebook Follow gcmap on Twitter

hCard Microformat

Geo Microformat